.
WxDataArchive / Data Records for 2009-11-23
2009-11-22 November 2009 2009-11-24

Data Records for Monday, 23 November 2009

Time	Temp	Chill	HIndex	Humid	Dewpt	 Wind 	HiWind	WindDir	Rain 	Barom 
-----	----	-----	------	-----	-----	------	------	-------	-----	----- 
00:00	42.8	42.8	42.8	92	40.6	0	1	112	0.00	30.189 
00:05	42.6	42.6	42.6	92	40.4	0	1	112	0.00	30.189 
00:10	42.5	42.5	42.5	92	40.3	0	2	112	0.00	30.189 
00:15	42.3	42.3	42.3	93	40.4	0	1	112	0.00	30.185 
00:20	42.2	42.2	42.2	93	40.3	0	2	112	0.00	30.185 
00:25	42.2	42.2	42.2	93	40.3	0	1	112	0.00	30.185 
00:30	42.1	42.1	42.1	93	40.2	0	2	112	0.00	30.181 
00:35	42.1	42.1	42.1	93	40.2	0	2	112	0.00	30.181 
00:40	42.1	42.1	42.1	93	40.2	0	1	112	0.00	30.181 
00:45	42.1	42.1	42.1	94	40.5	0	3	112	0.00	30.177 
00:50	41.9	41.9	41.9	94	40.3	0	3	112	0.00	30.177 
00:55	41.9	41.9	41.9	94	40.3	0	2	112	0.00	30.177 
01:00	41.8	41.8	41.8	94	40.2	0	0	---	0.00	30.170 
01:05	41.6	41.6	41.6	94	40.0	0	1	112	0.00	30.170 
01:10	41.6	41.6	41.6	94	40.0	0	0	---	0.00	30.170 
01:15	41.6	41.6	41.6	94	40.0	0	1	112	0.00	30.166 
01:20	41.6	41.6	41.6	94	40.0	0	2	112	0.00	30.166 
01:25	41.6	41.6	41.6	94	40.0	0	2	112	0.00	30.166 
01:30	41.6	41.6	41.6	94	40.0	0	0	---	0.00	30.165 
01:35	41.5	41.5	41.5	94	39.9	0	0	---	0.00	30.165 
01:40	41.5	41.5	41.5	94	39.9	0	0	---	0.00	30.165 
01:45	41.5	41.5	41.5	95	40.2	0	1	112	0.00	30.162 
01:50	41.5	41.5	41.5	95	40.2	0	0	---	0.00	30.162 
01:55	41.3	41.3	41.3	95	40.0	0	1	112	0.00	30.162 
02:00	41.5	41.5	41.5	95	40.2	0	3	112	0.00	30.155 
02:05	41.5	41.5	41.5	95	40.2	0	2	112	0.00	30.155 
02:10	41.5	41.5	41.5	95	40.2	0	2	112	0.00	30.155 
02:15	41.3	41.3	41.3	95	40.0	0	2	112	0.00	30.157 
02:20	41.3	41.3	41.3	95	40.0	0	3	112	0.00	30.157 
02:25	41.3	41.3	41.3	95	40.0	1	2	112	0.00	30.157 
02:30	41.3	41.3	41.3	95	40.0	1	3	112	0.00	30.159 
02:35	41.3	41.3	41.3	95	40.0	1	3	112	0.00	30.159 
02:40	41.5	41.5	41.5	95	40.2	1	3	112	0.00	30.159 
02:45	41.6	41.6	41.6	95	40.3	1	4	112	0.00	30.163 
02:50	41.8	41.8	41.8	96	40.7	1	3	112	0.00	30.163 
02:55	41.9	41.9	41.9	96	40.8	2	5	90	0.00	30.163 
03:00	42.1	42.1	42.1	96	41.0	2	5	90	0.00	30.165 
03:05	42.2	42.2	42.2	96	41.1	2	7	112	0.00	30.165 
03:10	42.1	42.1	42.1	96	41.0	2	5	90	0.00	30.165 
03:15	42.1	42.1	42.1	96	41.0	2	4	112	0.00	30.164 
03:20	42.1	42.1	42.1	96	41.0	2	5	90	0.00	30.164 
03:25	42.1	42.1	42.1	96	41.0	2	5	112	0.00	30.164 
03:30	42.2	42.2	42.2	96	41.1	3	6	90	0.00	30.162 
03:35	42.2	42.2	42.2	96	41.1	3	7	90	0.00	30.162 
03:40	42.2	42.2	42.2	96	41.1	2	5	135	0.00	30.162 
03:45	42.2	42.2	42.2	96	41.1	2	6	112	0.00	30.153 
03:50	42.2	42.2	42.2	96	41.1	2	7	112	0.00	30.153 
03:55	42.2	42.2	42.2	96	41.1	2	4	90	0.00	30.153 
04:00	42.1	42.1	42.1	96	41.0	2	5	90	0.00	30.153 
04:05	42.1	42.1	42.1	96	41.0	2	4	90	0.00	30.153 
04:10	42.1	42.1	42.1	96	41.0	1	4	90	0.00	30.153 
04:15	42.1	42.1	42.1	96	41.0	2	5	90	0.00	30.158 
04:20	42.1	42.1	42.1	96	41.0	1	5	90	0.00	30.158 
04:25	41.9	41.9	41.9	96	40.8	1	3	90	0.00	30.158 
04:30	41.9	41.9	41.9	96	40.8	2	6	90	0.00	30.158 
04:35	41.9	41.9	41.9	96	40.8	1	4	90	0.00	30.158 
04:40	41.8	41.8	41.8	96	40.7	1	4	112	0.00	30.158 
04:45	41.8	41.8	41.8	96	40.7	1	4	112	0.00	30.159 
04:50	41.6	41.6	41.6	96	40.5	2	5	90	0.00	30.159 
04:55	41.6	41.6	41.6	96	40.5	1	4	90	0.00	30.159 
05:00	41.5	41.5	41.5	96	40.4	2	5	90	0.00	30.168 
05:05	41.3	41.3	41.3	96	40.2	3	6	112	0.00	30.168 
05:10	41.2	41.2	41.2	96	40.1	2	4	112	0.00	30.168 
05:15	41.1	41.1	41.1	96	40.0	3	5	90	0.00	30.170 
05:20	41.1	41.1	41.1	96	40.0	2	5	90	0.00	30.170 
05:25	40.9	40.9	40.9	96	39.8	2	4	112	0.00	30.170 
05:30	40.8	40.8	40.8	96	39.7	2	5	90	0.00	30.165 
05:35	40.8	40.8	40.8	96	39.7	2	5	90	0.00	30.165 
05:40	40.6	40.6	40.6	96	39.5	2	6	90	0.00	30.165 
05:45	40.5	40.5	40.5	96	39.5	2	5	90	0.00	30.160 
05:50	40.5	40.5	40.5	96	39.5	2	4	90	0.00	30.160 
05:55	40.6	40.6	40.6	96	39.5	1	3	90	0.00	30.160 
06:00	40.6	40.6	40.6	97	39.8	1	3	90	0.00	30.160 
06:05	40.8	40.8	40.8	97	40.0	1	5	90	0.00	30.160 
06:10	40.6	40.6	40.6	97	39.8	1	4	90	0.00	30.160 
06:15	40.6	40.6	40.6	97	39.8	2	5	90	0.00	30.161 
06:20	40.5	40.5	40.5	97	39.7	1	4	112	0.00	30.161 
06:25	40.5	40.5	40.5	97	39.7	1	3	112	0.00	30.161 
06:30	40.5	40.5	40.5	97	39.7	0	2	112	0.00	30.165 
06:35	40.3	40.3	40.3	97	39.5	1	4	112	0.00	30.165 
06:40	40.2	40.2	40.2	97	39.4	2	4	112	0.00	30.165 
06:45	40.2	40.2	40.2	97	39.4	0	3	112	0.00	30.175 
06:50	40.2	40.2	40.2	97	39.4	1	3	112	0.00	30.175 
06:55	40.2	40.2	40.2	97	39.4	1	3	112	0.00	30.175 
07:00	40.1	40.1	40.1	97	39.3	0	2	112	0.00	30.171 
07:05	39.9	39.9	39.9	97	39.1	1	3	112	0.00	30.171 
07:10	39.9	39.9	39.9	97	39.1	1	4	112	0.00	30.171 
07:15	39.8	39.8	39.8	97	39.0	2	5	90	0.00	30.176 
07:20	39.6	39.6	39.6	97	38.8	2	4	90	0.00	30.176 
07:25	39.6	39.6	39.6	97	38.8	0	1	112	0.00	30.176 
07:30	39.6	39.6	39.6	97	38.8	0	1	112	0.00	30.175 
07:35	39.8	39.8	39.8	97	39.0	1	4	112	0.00	30.175 
07:40	39.6	39.6	39.6	97	38.8	2	6	90	0.00	30.175 
07:45	39.5	39.5	39.5	97	38.7	3	5	90	0.00	30.183 
07:50	39.5	39.5	39.5	97	38.7	1	3	112	0.00	30.183 
07:55	39.5	39.5	39.5	97	38.7	1	3	112	0.00	30.183 
08:00	39.5	39.5	39.5	97	38.7	1	4	112	0.00	30.188 
08:05	39.3	39.3	39.3	97	38.5	0	3	90	0.00	30.188 
08:10	39.3	39.3	39.3	97	38.5	0	2	90	0.00	30.188 
08:15	39.2	39.2	39.2	97	38.4	0	2	90	0.00	30.198 
08:20	39.3	39.3	39.3	97	38.5	1	4	90	0.00	30.198 
08:25	39.3	39.3	39.3	97	38.5	1	3	90	0.00	30.198 
08:30	39.3	39.3	39.3	97	38.5	0	2	90	0.00	30.198 
08:35	39.2	39.2	39.2	97	38.4	0	1	90	0.00	30.198 
08:40	39.3	39.3	39.3	97	38.5	1	3	158	0.00	30.198 
08:45	39.2	39.2	39.2	97	38.4	0	2	158	0.00	30.199 
08:50	39.2	39.2	39.2	97	38.4	1	3	68	0.00	30.199 
08:55	39.3	39.3	39.3	97	38.5	0	2	68	0.00	30.199 
09:00	39.6	39.6	39.6	97	38.8	0	1	68	0.00	30.199 
09:05	39.8	39.8	39.8	97	39.0	0	2	68	0.00	30.199 
09:10	39.9	39.9	39.9	97	39.1	0	2	68	0.00	30.199 
09:15	39.8	39.8	39.8	97	39.0	0	3	45	0.00	30.200 
09:20	39.6	39.6	39.6	97	38.8	1	3	90	0.00	30.200 
09:25	39.5	39.5	39.5	97	38.7	0	2	90	0.00	30.200 
09:30	39.6	39.6	39.6	97	38.8	0	2	90	0.00	30.205 
09:35	39.6	39.6	39.6	97	38.8	0	3	90	0.00	30.205 
09:40	39.6	39.6	39.6	97	38.8	0	2	68	0.00	30.205 
09:45	39.6	39.6	39.6	97	38.8	0	3	22	0.00	30.203 
09:50	39.6	39.6	39.6	97	38.8	0	3	22	0.00	30.203 
09:55	39.6	39.6	39.6	97	38.8	0	2	22	0.00	30.203 
10:00	39.8	39.8	39.8	97	39.0	0	3	22	0.00	30.204 
10:05	39.8	39.8	39.8	97	39.0	0	2	112	0.00	30.204 
10:10	39.9	39.9	39.9	97	39.1	0	1	112	0.00	30.204 
10:15	40.3	40.3	40.3	97	39.5	0	1	112	0.00	30.197 
10:20	40.6	40.6	40.6	97	39.8	1	4	112	0.00	30.197 
10:25	40.8	40.8	40.8	97	40.0	0	3	112	0.00	30.197 
10:30	41.1	41.1	41.1	97	40.3	1	3	90	0.00	30.193 
10:35	41.2	41.2	41.2	97	40.4	0	2	0	0.00	30.193 
10:40	41.3	41.3	41.3	97	40.5	1	3	0	0.00	30.193 
10:45	41.5	41.5	41.5	97	40.7	0	2	68	0.00	30.191 
10:50	41.9	41.9	41.9	97	41.1	0	2	68	0.00	30.191 
10:55	42.2	42.2	42.2	97	41.4	1	3	68	0.00	30.191 
11:00	42.3	42.3	42.3	97	41.5	2	4	112	0.00	30.188 
11:05	42.3	42.3	42.3	97	41.5	2	5	112	0.00	30.188 
11:10	42.8	42.8	42.8	97	42.0	1	3	112	0.00	30.188 
11:15	42.8	42.8	42.8	97	42.0	2	5	90	0.00	30.186 
11:20	43.1	43.1	43.1	97	42.3	1	4	112	0.00	30.186 
11:25	43.2	43.2	43.2	96	42.1	2	6	90	0.00	30.186 
11:30	43.3	43.3	43.3	96	42.2	2	4	112	0.00	30.175 
11:35	43.6	43.6	43.6	95	42.3	2	4	112	0.00	30.175 
11:40	43.8	43.8	43.8	93	41.9	2	6	90	0.00	30.175 
11:45	44.1	44.1	44.1	92	41.9	2	5	112	0.00	30.165 
11:50	44.2	44.2	44.2	90	41.5	3	6	112	0.00	30.165 
11:55	44.5	44.5	44.5	89	41.5	2	5	112	0.00	30.165 
12:00	44.9	44.9	44.9	88	41.6	2	6	112	0.00	30.162 
12:05	45.4	45.4	45.4	86	41.5	2	6	112	0.00	30.162 
12:10	45.5	45.5	45.5	85	41.3	3	6	90	0.00	30.162 
12:15	45.7	45.7	45.7	84	41.1	2	5	112	0.00	30.158 
12:20	46.0	46.0	46.0	84	41.4	2	6	112	0.00	30.158 
12:25	46.2	46.2	46.2	84	41.6	2	7	112	0.00	30.158 
12:30	46.2	44.5	46.2	83	41.3	4	7	90	0.00	30.154 
12:35	46.5	46.5	46.5	83	41.6	3	8	112	0.00	30.154 
12:40	46.7	46.7	46.7	82	41.5	3	9	135	0.00	30.154 
12:45	47.1	47.1	47.1	81	41.6	1	5	135	0.00	30.146 
12:50	47.3	47.3	47.3	80	41.4	2	6	90	0.00	30.146 
12:55	47.4	47.4	47.4	80	41.5	3	7	90	0.00	30.146 
13:00	47.4	47.4	47.4	80	41.5	3	7	90	0.00	30.144 
13:05	47.4	47.4	47.4	79	41.2	3	7	90	0.00	30.144 
13:10	47.6	47.6	47.6	79	41.4	1	4	112	0.00	30.144 
13:15	47.7	47.7	47.7	78	41.2	1	5	112	0.00	30.142 
13:20	48.0	48.0	48.0	78	41.5	1	2	158	0.00	30.142 
13:25	48.2	48.2	48.2	78	41.7	2	5	112	0.00	30.142 
13:30	48.2	48.2	48.2	78	41.7	1	6	112	0.00	30.141 
13:35	48.3	48.3	48.3	77	41.4	3	7	112	0.00	30.141 
13:40	48.5	48.5	48.5	77	41.6	3	6	112	0.00	30.141 
13:45	48.6	48.6	48.6	78	42.1	3	6	112	0.00	30.135 
13:50	48.9	48.9	48.9	77	42.0	2	6	112	0.00	30.135 
13:55	49.1	49.1	49.1	77	42.2	2	6	112	0.00	30.135 
14:00	49.4	49.4	49.4	77	42.5	1	4	112	0.00	30.133 
14:05	49.6	49.6	49.6	77	42.7	1	4	135	0.00	30.133 
14:10	49.8	49.8	49.8	76	42.5	2	5	112	0.00	30.133 
14:15	49.9	49.9	49.9	76	42.6	3	7	90	0.00	30.125 
14:20	50.1	50.1	50.1	77	43.2	2	4	90	0.00	30.125 
14:25	49.9	49.9	49.9	75	42.3	2	7	90	0.00	30.125 
14:30	50.1	50.1	50.1	77	43.2	3	6	112	0.00	30.128 
14:35	50.1	50.1	50.1	76	42.8	2	5	90	0.00	30.128 
14:40	50.2	50.2	50.2	77	43.3	3	6	112	0.00	30.128 
14:45	50.2	50.2	50.2	77	43.3	3	7	90	0.00	30.127 
14:50	50.2	50.2	50.2	77	43.3	3	6	112	0.00	30.127 
14:55	50.2	50.2	50.2	77	43.3	3	6	90	0.00	30.127 
15:00	50.2	50.2	50.2	77	43.3	2	6	112	0.00	30.128 
15:05	50.1	50.1	50.1	78	43.5	1	4	112	0.00	30.128 
15:10	49.8	49.8	49.8	77	42.9	2	4	112	0.00	30.128 
15:15	49.5	49.5	49.5	78	42.9	2	5	112	0.00	30.128 
15:20	49.4	49.4	49.4	79	43.2	2	4	112	0.00	30.128 
15:25	49.4	49.4	49.4	79	43.2	1	4	90	0.00	30.128 
15:30	49.5	49.5	49.5	79	43.3	2	5	90	0.00	30.127 
15:35	49.5	49.5	49.5	79	43.3	1	4	90	0.00	30.127 
15:40	49.6	49.6	49.6	80	43.7	1	2	90	0.00	30.127 
15:45	49.8	49.8	49.8	80	43.9	1	4	90	0.00	30.128 
15:50	49.9	49.9	49.9	79	43.6	2	5	90	0.00	30.128 
15:55	49.9	49.9	49.9	78	43.3	2	5	90	0.00	30.128 
16:00	50.1	50.1	50.1	78	43.5	2	5	90	0.00	30.132 
16:05	50.1	50.1	50.1	79	43.8	2	4	112	0.00	30.132 
16:10	49.9	49.9	49.9	79	43.6	2	5	112	0.00	30.132 
16:15	49.9	49.9	49.9	78	43.3	2	5	90	0.00	30.133 
16:20	49.8	49.8	49.8	78	43.2	2	4	112	0.00	30.133 
16:25	49.8	49.8	49.8	79	43.6	2	5	112	0.00	30.133 
16:30	49.6	49.6	49.6	80	43.7	2	5	112	0.00	30.135 
16:35	49.5	49.5	49.5	81	43.9	3	5	112	0.00	30.135 
16:40	49.4	49.4	49.4	81	43.8	2	4	112	0.00	30.135 
16:45	49.4	49.4	49.4	82	44.1	1	4	112	0.00	30.136 
16:50	49.2	49.2	49.2	82	43.9	2	5	112	0.00	30.136 
16:55	49.1	49.1	49.1	83	44.2	2	4	90	0.00	30.136 
17:00	48.9	48.9	48.9	84	44.3	2	4	112	0.00	30.139 
17:05	48.9	48.9	48.9	84	44.3	1	3	90	0.00	30.139 
17:10	48.8	48.8	48.8	84	44.2	2	5	90	0.00	30.139 
17:15	48.6	48.6	48.6	85	44.3	2	5	112	0.00	30.139 
17:20	48.5	48.5	48.5	86	44.5	1	2	90	0.00	30.139 
17:25	48.2	48.2	48.2	86	44.2	1	4	90	0.00	30.139 
17:30	48.0	48.0	48.0	86	44.0	1	4	90	0.00	30.143 
17:35	47.7	47.7	47.7	87	44.0	1	3	90	0.00	30.143 
17:40	47.6	47.6	47.6	87	43.9	1	5	90	0.00	30.143 
17:45	47.3	47.3	47.3	88	43.9	1	3	90	0.00	30.142 
17:50	47.0	47.0	47.0	88	43.6	1	4	90	0.00	30.142 
17:55	46.8	46.8	46.8	88	43.4	1	2	90	0.00	30.142 
18:00	46.7	46.7	46.7	89	43.6	1	3	90	0.00	30.146 
18:05	46.4	46.4	46.4	89	43.3	0	3	90	0.00	30.146 
18:10	46.2	46.2	46.2	89	43.1	0	2	90	0.00	30.146 
18:15	46.0	46.0	46.0	89	42.9	0	1	90	0.00	30.149 
18:20	45.8	45.8	45.8	90	43.0	0	3	90	0.00	30.149 
18:25	45.5	45.5	45.5	90	42.7	1	3	90	0.00	30.149 
18:30	45.4	45.4	45.4	91	42.9	1	2	90	0.00	30.146 
18:35	45.2	45.2	45.2	91	42.7	0	1	90	0.00	30.146 
18:40	44.9	44.9	44.9	91	42.4	0	3	90	0.00	30.146 
18:45	44.8	44.8	44.8	91	42.3	0	2	90	0.00	30.149 
18:50	44.6	44.6	44.6	92	42.4	0	1	90	0.00	30.149 
18:55	44.3	44.3	44.3	92	42.1	0	0	---	0.00	30.149 
19:00	44.2	44.2	44.2	92	42.0	0	0	---	0.00	30.151 
19:05	43.9	43.9	43.9	92	41.7	0	1	90	0.00	30.151 
19:10	43.8	43.8	43.8	92	41.6	0	1	90	0.00	30.151 
19:15	43.8	43.8	43.8	93	41.9	0	2	90	0.00	30.161 
19:20	43.6	43.6	43.6	93	41.7	0	1	90	0.00	30.161 
19:25	43.5	43.5	43.5	93	41.6	0	0	---	0.00	30.161 
19:30	43.3	43.3	43.3	93	41.4	0	1	90	0.00	30.163 
19:35	43.2	43.2	43.2	93	41.3	0	0	---	0.00	30.163 
19:40	43.1	43.1	43.1	93	41.2	0	0	---	0.00	30.163 
19:45	42.8	42.8	42.8	93	40.9	0	0	---	0.00	30.164 
19:50	42.3	42.3	42.3	93	40.4	0	0	---	0.00	30.164 
19:55	42.1	42.1	42.1	93	40.2	0	0	---	0.00	30.164 
20:00	41.9	41.9	41.9	93	40.0	0	0	---	0.00	30.164 
20:05	41.8	41.8	41.8	93	39.9	0	0	---	0.00	30.164 
20:10	41.6	41.6	41.6	93	39.7	0	0	---	0.00	30.164 
20:15	41.3	41.3	41.3	93	39.4	0	0	---	0.00	30.164 
20:20	41.2	41.2	41.2	93	39.3	0	0	---	0.00	30.164 
20:25	41.2	41.2	41.2	94	39.6	0	0	---	0.00	30.164 
20:30	41.2	41.2	41.2	94	39.6	0	0	---	0.00	30.165 
20:35	41.2	41.2	41.2	94	39.6	0	0	---	0.00	30.165 
20:40	41.1	41.1	41.1	94	39.5	0	0	---	0.00	30.165 
20:45	40.9	40.9	40.9	94	39.3	0	0	---	0.00	30.166 
20:50	40.8	40.8	40.8	94	39.2	0	0	---	0.00	30.166 
20:55	40.5	40.5	40.5	94	38.9	0	0	---	0.00	30.166 
21:00	40.3	40.3	40.3	94	38.7	0	0	---	0.00	30.166 
21:05	40.1	40.1	40.1	94	38.5	0	0	---	0.00	30.166 
21:10	39.9	39.9	39.9	94	38.3	0	0	---	0.00	30.166 
21:15	39.8	39.8	39.8	94	38.2	0	0	---	0.00	30.166 
21:20	39.6	39.6	39.6	94	38.0	0	0	---	0.00	30.166 
21:25	39.5	39.5	39.5	94	37.9	0	0	---	0.00	30.166 
21:30	39.5	39.5	39.5	94	37.9	0	0	---	0.00	30.165 
21:35	39.5	39.5	39.5	94	37.9	0	0	---	0.00	30.165 
21:40	39.3	39.3	39.3	94	37.7	0	0	---	0.00	30.165 
21:45	39.3	39.3	39.3	94	37.7	0	0	---	0.00	30.168 
21:50	39.3	39.3	39.3	94	37.7	0	0	---	0.00	30.168 
21:55	39.2	39.2	39.2	94	37.6	0	0	---	0.00	30.168 
22:00	39.2	39.2	39.2	95	37.9	0	0	---	0.00	30.170 
22:05	39.1	39.1	39.1	94	37.5	0	0	---	0.00	30.170 
22:10	39.1	39.1	39.1	95	37.8	0	0	---	0.00	30.170 
22:15	38.9	38.9	38.9	95	37.6	0	0	---	0.00	30.165 
22:20	38.9	38.9	38.9	95	37.6	0	0	---	0.00	30.165 
22:25	38.8	38.8	38.8	95	37.5	0	0	---	0.00	30.165 
22:30	38.9	38.9	38.9	95	37.6	0	0	---	0.00	30.160 
22:35	38.9	38.9	38.9	95	37.6	0	0	---	0.00	30.160 
22:40	38.9	38.9	38.9	95	37.6	0	0	---	0.00	30.160 
22:45	39.1	39.1	39.1	95	37.8	0	0	---	0.00	30.156 
22:50	39.1	39.1	39.1	95	37.8	0	0	---	0.00	30.156 
22:55	39.1	39.1	39.1	95	37.8	0	0	---	0.00	30.156 
23:00	39.2	39.2	39.2	95	37.9	0	0	---	0.00	30.150 
23:05	39.3	39.3	39.3	95	38.0	0	1	90	0.00	30.150 
23:10	39.5	39.5	39.5	95	38.2	0	1	90	0.00	30.150 
23:15	39.6	39.6	39.6	96	38.6	0	2	90	0.00	30.145 
23:20	39.8	39.8	39.8	96	38.8	0	1	90	0.00	30.145 
23:25	39.8	39.8	39.8	96	38.8	0	0	---	0.00	30.145 
23:30	39.8	39.8	39.8	96	38.8	0	0	---	0.00	30.147 
23:35	39.8	39.8	39.8	96	38.8	0	0	---	0.00	30.147 
23:40	39.8	39.8	39.8	96	38.8	0	0	---	0.00	30.147 
23:45	39.8	39.8	39.8	96	38.8	0	0	---	0.00	30.146 
23:50	39.9	39.9	39.9	96	38.9	0	0	---	0.00	30.146 
23:55	39.8	39.8	39.8	96	38.8	0	1	90	0.00	30.146 

CoCoRaHS
IN-AL-39
A2 Web Hosting
Creative Commons License
GoDaddy
search engine by freefind advanced

loaded 2018-11-16 01:21:48 • last modified 2010-11-18 10:43:29
Privacy PolicyDisclaimer
• wx.awcolley.com is powered by PmWiki v.2002016 •
• all content (unless otherwise noted) © 2018 A W Colley